createdAt,value
2024-03-18T00:00:42.687Z,97672.47
2024-03-18T00:03:30.840Z,97677.17
2024-03-18T00:05:59.177Z,97676.25
2024-03-18T00:08:27.277Z,97674.70
2024-03-18T00:10:55.447Z,97676.40
2024-03-18T00:13:23.534Z,97673.84
2024-03-18T00:15:51.896Z,97672.78
2024-03-18T00:18:20.005Z,97672.07
2024-03-18T00:20:48.630Z,97674.65
2024-03-18T00:23:16.811Z,97677.84
2024-03-18T00:25:45.286Z,97679.02
2024-03-18T00:28:14.727Z,97677.38
2024-03-18T00:30:44.911Z,97668.30
2024-03-18T00:33:16.555Z,97667.01
2024-03-18T00:35:48.016Z,97669.36
2024-03-18T00:38:17.648Z,97668.19
2024-03-18T00:40:46.453Z,97664.92
2024-03-18T00:43:14.891Z,97665.73
2024-03-18T00:45:43.015Z,97664.34
2024-03-18T00:48:11.606Z,97664.47
2024-03-18T00:50:39.640Z,97662.34
2024-03-18T00:53:08.696Z,97659.39
2024-03-18T00:55:36.797Z,97649.44
2024-03-18T00:58:04.943Z,97645.66
2024-03-18T01:00:32.989Z,97644.49
2024-03-18T01:03:01.048Z,97637.36
2024-03-18T01:05:29.430Z,97632.08
2024-03-18T01:07:58.026Z,97631.10
2024-03-18T01:10:26.657Z,97630.75
2024-03-18T01:12:57.585Z,97626.48
2024-03-18T01:15:26.686Z,97619.69
2024-03-18T01:17:56.374Z,97612.95
2024-03-18T01:20:25.181Z,97606.70
2024-03-18T01:22:53.608Z,97606.60
2024-03-18T01:25:21.815Z,97608.52
2024-03-18T01:27:49.951Z,97605.39
2024-03-18T01:30:19.361Z,97600.05
2024-03-18T01:32:47.527Z,97600.88
2024-03-18T01:35:16.237Z,97596.83
2024-03-18T01:37:45.484Z,97601.99
2024-03-18T01:40:14.853Z,97600.95
2024-03-18T01:42:44.187Z,97604.33
2024-03-18T01:45:23.695Z,97602.13
2024-03-18T01:47:52.865Z,97605.42
2024-03-18T01:50:21.828Z,97607.71
2024-03-18T01:52:50.140Z,97609.45
2024-03-18T01:55:18.662Z,97609.36
2024-03-18T01:57:50.060Z,97611.68
2024-03-18T02:00:33.621Z,97610.88
2024-03-18T02:03:03.134Z,97611.65
2024-03-18T02:05:34.196Z,97611.48
2024-03-18T02:08:02.724Z,97608.48
2024-03-18T02:10:31.990Z,97605.11
2024-03-18T02:13:02.502Z,97607.98
2024-03-18T02:15:34.058Z,97608.01
2024-03-18T02:18:02.104Z,97606.27
2024-03-18T02:20:30.636Z,97608.88
2024-03-18T02:22:58.657Z,97610.35
2024-03-18T02:25:26.928Z,97605.55
2024-03-18T02:27:55.267Z,97610.21
2024-03-18T02:30:24.350Z,97611.02
2024-03-18T02:32:52.589Z,97609.55
2024-03-18T02:35:20.681Z,97610.98
2024-03-18T02:37:51.740Z,97610.77
2024-03-18T02:40:19.996Z,97609.17
2024-03-18T02:42:48.712Z,97607.90
2024-03-18T02:45:16.872Z,97609.45
2024-03-18T02:47:45.119Z,97607.28
2024-03-18T02:50:16.013Z,97604.15
2024-03-18T02:52:44.742Z,97604.61
2024-03-18T02:55:12.811Z,97605.66
2024-03-18T02:57:41.478Z,97608.36
2024-03-18T03:00:11.785Z,97604.55
2024-03-18T03:02:41.291Z,97609.38
2024-03-18T03:05:10.405Z,97600.55
2024-03-18T03:07:39.684Z,97602.39
2024-03-18T03:10:10.258Z,97600.06
2024-03-18T03:12:38.321Z,97595.09
2024-03-18T03:15:07.388Z,97592.77
2024-03-18T03:17:35.652Z,97590.33
2024-03-18T03:20:09.589Z,97587.45
2024-03-18T03:22:37.848Z,97581.77
2024-03-18T03:25:07.373Z,97582.27
2024-03-18T03:27:36.005Z,97579.46
2024-03-18T03:30:04.977Z,97577.73
2024-03-18T03:32:33.032Z,97576.08
2024-03-18T03:35:01.083Z,97573.34
2024-03-18T03:37:30.057Z,97571.36
2024-03-18T03:39:58.053Z,97571.53
2024-03-18T03:42:31.249Z,97572.88
2024-03-18T03:44:59.365Z,97573.27
2024-03-18T03:47:27.559Z,97575.29
2024-03-18T03:49:55.673Z,97576.67
2024-03-18T03:52:24.021Z,97578.39
2024-03-18T03:54:52.193Z,97574.23
2024-03-18T03:57:20.596Z,97571.09
2024-03-18T03:59:48.500Z,97564.77
2024-03-18T04:02:18.523Z,97563.67
2024-03-18T04:04:47.076Z,97567.13
2024-03-18T04:07:21.518Z,97566.57
2024-03-18T04:09:50.553Z,97561.83
2024-03-18T04:12:19.650Z,97562.71
2024-03-18T04:14:50.417Z,97560.78
2024-03-18T04:17:19.119Z,97559.09
2024-03-18T04:19:48.120Z,97561.55
2024-03-18T04:22:16.299Z,97560.09
2024-03-18T04:24:44.563Z,97558.44
2024-03-18T04:27:13.742Z,97559.00
2024-03-18T04:29:42.974Z,97557.26
2024-03-18T04:32:11.590Z,97555.38
2024-03-18T04:34:40.831Z,97553.81
2024-03-18T04:37:09.246Z,97556.98
2024-03-18T04:39:37.696Z,97552.47
2024-03-18T04:42:07.277Z,97552.85
2024-03-18T04:44:35.471Z,97556.77
2024-03-18T04:47:03.670Z,97549.04
2024-03-18T04:49:32.014Z,97550.07
2024-03-18T04:52:00.539Z,97546.52
2024-03-18T04:54:28.627Z,97550.82
2024-03-18T04:56:56.826Z,97547.10
2024-03-18T04:59:26.040Z,97546.48
2024-03-18T05:01:54.302Z,97548.05
2024-03-18T05:04:22.480Z,97548.19
2024-03-18T05:06:50.879Z,97544.45
2024-03-18T05:09:22.540Z,97545.98
2024-03-18T05:11:50.650Z,97545.38
2024-03-18T05:14:18.908Z,97542.79
2024-03-18T05:16:48.033Z,97542.02
2024-03-18T05:19:16.296Z,97543.38
2024-03-18T05:21:44.816Z,97542.51
2024-03-18T05:24:13.144Z,97544.77
2024-03-18T05:26:41.923Z,97541.90
2024-03-18T05:29:11.446Z,97544.11
2024-03-18T05:31:40.852Z,97543.31
2024-03-18T05:34:10.104Z,97541.20
2024-03-18T05:36:41.205Z,97536.70
2024-03-18T05:39:12.331Z,97534.10
2024-03-18T05:41:40.468Z,97534.45
2024-03-18T05:44:09.055Z,97532.16
2024-03-18T05:46:37.268Z,97528.31
2024-03-18T05:49:10.489Z,97527.84
2024-03-18T05:51:39.421Z,97527.53
2024-03-18T05:54:10.735Z,97533.39
2024-03-18T05:56:39.234Z,97539.79
2024-03-18T05:59:08.202Z,97537.29
2024-03-18T06:01:37.117Z,97532.86
2024-03-18T06:04:06.260Z,97530.04
2024-03-18T06:06:37.451Z,97530.52
2024-03-18T06:09:05.938Z,97531.63
2024-03-18T06:11:36.220Z,97529.27
2024-03-18T06:14:04.941Z,97533.54
2024-03-18T06:16:34.093Z,97528.63
2024-03-18T06:19:04.429Z,97528.66
2024-03-18T06:21:41.542Z,97526.73
2024-03-18T06:24:19.307Z,97523.55
2024-03-18T06:26:48.720Z,97519.17
2024-03-18T06:29:19.147Z,97520.67
2024-03-18T06:31:49.585Z,97514.14
2024-03-18T06:34:17.751Z,97510.12
2024-03-18T06:36:47.874Z,97504.92
2024-03-18T06:39:17.366Z,97504.23
2024-03-18T06:41:47.400Z,97505.05
2024-03-18T06:44:16.022Z,97506.50
2024-03-18T06:46:44.468Z,97503.28
2024-03-18T06:49:13.566Z,97500.40
2024-03-18T06:51:42.054Z,97500.89
2024-03-18T06:54:10.662Z,97499.25
2024-03-18T06:56:39.227Z,97493.91
2024-03-18T06:59:08.168Z,97495.36
2024-03-18T07:01:36.876Z,97492.48
2024-03-18T07:04:06.371Z,97492.24
2024-03-18T07:06:35.903Z,97487.02
2024-03-18T07:09:04.747Z,97488.41
2024-03-18T07:11:34.385Z,97488.80
2024-03-18T07:14:02.760Z,97492.86
2024-03-18T07:16:31.042Z,97495.48
2024-03-18T07:18:59.285Z,97491.91
2024-03-18T07:21:27.679Z,97489.77
2024-03-18T07:23:56.275Z,97488.77
2024-03-18T07:26:27.708Z,97483.19
2024-03-18T07:29:02.085Z,97474.96
2024-03-18T07:31:32.981Z,97470.69
2024-03-18T07:34:01.778Z,97472.29
2024-03-18T07:36:30.570Z,97472.59
2024-03-18T07:39:00.233Z,97471.54
2024-03-18T07:41:29.108Z,97470.05
2024-03-18T07:43:57.889Z,97469.52
2024-03-18T07:46:26.510Z,97465.20
2024-03-18T07:48:55.069Z,97457.38
2024-03-18T07:51:23.206Z,97452.58
2024-03-18T07:53:52.860Z,97446.23
2024-03-18T07:56:21.717Z,97439.31
2024-03-18T07:58:50.132Z,97435.40
2024-03-18T08:01:18.369Z,97436.50
2024-03-18T08:03:49.684Z,97433.01
2024-03-18T08:06:19.910Z,97433.20
2024-03-18T08:08:48.453Z,97434.61
2024-03-18T08:11:17.001Z,97431.54
2024-03-18T08:13:45.869Z,97432.52
2024-03-18T08:16:17.622Z,97434.02
2024-03-18T08:18:47.072Z,97432.49
2024-03-18T08:21:15.732Z,97430.23
2024-03-18T08:23:46.988Z,97426.66
2024-03-18T08:26:16.685Z,97425.49
2024-03-18T08:28:46.670Z,97422.05
2024-03-18T08:31:15.448Z,97427.13
2024-03-18T08:34:02.973Z,97429.22
2024-03-18T08:36:32.797Z,97425.33
2024-03-18T08:39:02.591Z,97425.30
2024-03-18T08:41:31.137Z,97424.90
2024-03-18T08:43:59.581Z,97423.79
2024-03-18T08:46:31.990Z,97422.48
2024-03-18T08:49:02.078Z,97421.98
2024-03-18T08:51:35.261Z,97424.27
2024-03-18T08:54:04.424Z,97427.76
2024-03-18T08:56:38.101Z,97420.99
2024-03-18T08:59:07.531Z,97417.98
2024-03-18T09:01:38.666Z,97418.27
2024-03-18T09:04:08.155Z,97414.46
2024-03-18T09:06:36.992Z,97418.32
2024-03-18T09:09:15.863Z,97417.84
2024-03-18T09:11:44.991Z,97415.45
2024-03-18T09:14:14.782Z,97414.59
2024-03-18T09:16:43.566Z,97412.23
2024-03-18T09:19:18.009Z,97411.00
2024-03-18T09:21:49.344Z,97409.27
2024-03-18T09:24:19.395Z,97409.38
2024-03-18T09:26:49.150Z,97410.53
2024-03-18T09:29:17.624Z,97409.51
2024-03-18T09:31:47.020Z,97414.35
2024-03-18T09:34:19.838Z,97410.74
2024-03-18T09:36:48.581Z,97413.98
2024-03-18T09:39:17.991Z,97415.77
2024-03-18T09:41:53.706Z,97410.80
2024-03-18T09:44:22.199Z,97408.20
2024-03-18T09:46:55.398Z,97413.63
2024-03-18T09:49:26.877Z,97419.58
2024-03-18T09:52:02.593Z,97418.98
2024-03-18T09:54:31.924Z,97415.63
2024-03-18T09:57:12.528Z,97407.85
2024-03-18T09:59:45.602Z,97415.08
2024-03-18T10:02:21.805Z,97408.15
2024-03-18T10:04:51.289Z,97400.88
2024-03-18T10:07:20.050Z,97397.66
2024-03-18T10:09:54.879Z,97403.10
2024-03-18T10:12:26.681Z,97403.70
2024-03-18T10:14:58.948Z,97399.90
2024-03-18T10:17:27.247Z,97399.78
2024-03-18T10:19:56.218Z,97401.31
2024-03-18T10:22:29.673Z,97401.80
2024-03-18T10:25:02.238Z,97400.19
2024-03-18T10:27:31.287Z,97408.19
2024-03-18T10:30:02.298Z,97402.27
2024-03-18T10:32:31.043Z,97400.07
2024-03-18T10:35:03.019Z,97396.30
2024-03-18T10:37:34.056Z,97400.94
2024-03-18T10:40:12.129Z,97398.13
2024-03-18T10:42:46.800Z,97403.86
2024-03-18T10:45:18.846Z,97394.45
2024-03-18T10:48:01.560Z,97399.58
2024-03-18T10:50:33.707Z,97393.45
2024-03-18T10:53:03.795Z,97389.55
2024-03-18T10:55:33.700Z,97391.95
2024-03-18T10:58:07.181Z,97384.79
2024-03-18T11:00:36.619Z,97384.79
2024-03-18T11:03:21.327Z,97390.92
2024-03-18T11:05:53.898Z,97389.10
2024-03-18T11:08:24.563Z,97384.97
2024-03-18T11:10:58.557Z,97382.98
2024-03-18T11:13:34.811Z,97379.73
2024-03-18T11:16:08.557Z,97380.04
2024-03-18T11:18:49.038Z,97380.52
2024-03-18T11:21:21.454Z,97378.39
2024-03-18T11:24:02.611Z,97371.54
2024-03-18T11:26:34.453Z,97374.56
2024-03-18T11:29:13.075Z,97379.14
2024-03-18T11:31:42.554Z,97374.73
2024-03-18T11:34:25.310Z,97373.83
2024-03-18T11:36:59.217Z,97367.42
2024-03-18T11:39:29.008Z,97366.48
2024-03-18T11:42:04.994Z,97366.68
2024-03-18T11:44:35.060Z,97362.66
2024-03-18T11:47:10.346Z,97355.70
2024-03-18T11:49:38.758Z,97351.08
2024-03-18T11:52:15.229Z,97351.13
2024-03-18T11:54:46.580Z,97355.95
2024-03-18T11:57:17.472Z,97350.02
2024-03-18T11:59:50.338Z,97344.70
2024-03-18T12:02:21.064Z,97339.30
2024-03-18T12:04:52.811Z,97340.10
2024-03-18T12:07:28.361Z,97340.91
2024-03-18T12:09:58.503Z,97341.23
2024-03-18T12:12:32.166Z,97355.12
2024-03-18T12:15:04.870Z,97352.11
2024-03-18T12:17:33.576Z,97353.45
2024-03-18T12:20:04.715Z,97346.71
2024-03-18T12:22:38.771Z,97339.35
2024-03-18T12:25:35.118Z,97336.90
2024-03-18T12:28:27.790Z,97339.98
2024-03-18T12:30:58.626Z,97339.46
2024-03-18T12:33:31.347Z,97344.42
2024-03-18T12:36:07.734Z,97341.77
2024-03-18T12:38:37.553Z,97337.34
2024-03-18T12:41:10.832Z,97344.09
2024-03-18T12:43:39.869Z,97336.77
2024-03-18T12:46:16.549Z,97338.08
2024-03-18T12:48:48.584Z,97353.90
2024-03-18T12:51:19.265Z,97346.13
2024-03-18T12:53:51.916Z,97343.63
2024-03-18T12:56:37.991Z,97345.26
2024-03-18T12:59:21.449Z,97344.48
2024-03-18T13:01:54.238Z,97346.86
2024-03-18T13:04:25.179Z,97348.88
2024-03-18T13:06:58.769Z,97354.97
2024-03-18T13:09:29.058Z,97354.14
2024-03-18T13:11:58.367Z,97352.19
2024-03-18T13:14:30.230Z,97352.00
2024-03-18T13:17:01.499Z,97351.11
2024-03-18T13:19:29.976Z,97351.77
2024-03-18T13:22:00.026Z,97351.61
2024-03-18T13:24:30.936Z,97345.52
2024-03-18T13:27:02.434Z,97344.34
2024-03-18T13:29:33.018Z,97347.13
2024-03-18T13:32:02.858Z,97346.37
2024-03-18T13:34:31.793Z,97354.99
2024-03-18T13:37:00.109Z,97349.75
2024-03-18T13:39:30.448Z,97353.71
2024-03-18T13:42:03.042Z,97354.36
2024-03-18T13:44:31.669Z,97355.88
2024-03-18T13:47:01.856Z,97353.28
2024-03-18T13:49:34.630Z,97355.98
2024-03-18T13:52:04.453Z,97362.70
2024-03-18T13:54:33.492Z,97362.25
2024-03-18T13:57:04.296Z,97368.48
2024-03-18T13:59:40.360Z,97373.61
2024-03-18T14:02:18.785Z,97369.11
2024-03-18T14:04:49.070Z,97372.71
2024-03-18T14:07:20.831Z,97370.52
2024-03-18T14:09:51.362Z,97371.96
2024-03-18T14:12:22.157Z,97369.80
2024-03-18T14:15:12.973Z,97368.42
2024-03-18T14:17:48.803Z,97367.85
2024-03-18T14:20:18.602Z,97375.05
2024-03-18T14:22:50.443Z,97374.73
2024-03-18T14:25:20.105Z,97379.46
2024-03-18T14:28:07.776Z,97380.98
2024-03-18T14:30:37.124Z,97377.04
2024-03-18T14:33:08.348Z,97376.55
2024-03-18T14:35:38.993Z,97381.27
2024-03-18T14:38:07.373Z,97382.61
2024-03-18T14:40:38.249Z,97381.04
2024-03-18T14:43:08.411Z,97385.07
2024-03-18T14:45:40.136Z,97384.02
2024-03-18T14:48:13.149Z,97387.05
2024-03-18T14:50:41.950Z,97383.16
2024-03-18T14:53:11.669Z,97382.27
2024-03-18T14:55:41.386Z,97382.68
2024-03-18T14:58:09.544Z,97380.58
2024-03-18T15:00:38.629Z,97382.55
2024-03-18T15:03:07.483Z,97382.10
2024-03-18T15:05:40.793Z,97388.80
2024-03-18T15:08:11.908Z,97386.91
2024-03-18T15:10:41.031Z,97384.70
2024-03-18T15:13:10.708Z,97383.68
2024-03-18T15:15:39.119Z,97387.98
2024-03-18T15:18:07.360Z,97381.43
2024-03-18T15:20:35.777Z,97393.49
2024-03-18T15:23:11.251Z,97386.27
2024-03-18T15:26:00.808Z,97386.46
2024-03-18T15:28:32.209Z,97395.65
2024-03-18T15:31:02.432Z,97388.21
2024-03-18T15:33:41.588Z,97390.75
2024-03-18T15:36:12.201Z,97391.73
2024-03-18T15:38:44.533Z,97387.56
2024-03-18T15:41:13.794Z,97395.23
2024-03-18T15:43:42.177Z,97398.79
2024-03-18T15:46:14.255Z,97398.16
2024-03-18T15:48:42.673Z,97399.34
2024-03-18T15:51:15.519Z,97401.33
2024-03-18T15:53:44.920Z,97398.63
2024-03-18T15:56:14.941Z,97399.36
2024-03-18T15:58:47.788Z,97401.34
2024-03-18T16:01:19.335Z,97396.66
2024-03-18T16:03:48.868Z,97401.23
2024-03-18T16:06:26.370Z,97404.02
2024-03-18T16:08:59.766Z,97408.09
2024-03-18T16:11:30.234Z,97405.66
2024-03-18T16:13:58.477Z,97405.16
2024-03-18T16:16:28.314Z,97408.67
2024-03-18T16:18:57.853Z,97413.54
2024-03-18T16:21:26.340Z,97414.33
2024-03-18T16:23:55.809Z,97422.70
2024-03-18T16:26:25.790Z,97420.81
2024-03-18T16:28:54.143Z,97419.40
2024-03-18T16:31:22.715Z,97422.46
2024-03-18T16:33:51.022Z,97427.22
2024-03-18T16:36:25.932Z,97425.95
2024-03-18T16:38:54.271Z,97428.46
2024-03-18T16:41:22.990Z,97431.19
2024-03-18T16:43:52.819Z,97427.73
2024-03-18T16:46:21.926Z,97433.70
2024-03-18T16:48:53.013Z,97438.35
2024-03-18T16:51:21.308Z,97438.62
2024-03-18T16:53:51.883Z,97435.51
2024-03-18T16:56:20.137Z,97442.61
2024-03-18T16:58:48.764Z,97444.67
2024-03-18T17:01:18.438Z,97441.97
2024-03-18T17:03:46.663Z,97444.27
2024-03-18T17:06:17.470Z,97445.41
2024-03-18T17:08:46.180Z,97447.61
2024-03-18T17:11:15.765Z,97449.59
2024-03-18T17:13:44.924Z,97450.79
2024-03-18T17:16:13.175Z,97450.67
2024-03-18T17:18:41.494Z,97452.02
2024-03-18T17:21:09.849Z,97451.91
2024-03-18T17:23:38.428Z,97458.39
2024-03-18T17:26:09.176Z,97458.00
2024-03-18T17:28:37.432Z,97457.77
2024-03-18T17:31:07.732Z,97458.39
2024-03-18T17:33:41.016Z,97461.05
2024-03-18T17:36:23.371Z,97463.24
2024-03-18T17:39:00.013Z,97462.91
2024-03-18T17:41:31.832Z,97459.94
2024-03-18T17:44:00.520Z,97463.98
2024-03-18T17:46:30.399Z,97464.12
2024-03-18T17:48:58.932Z,97468.58
2024-03-18T17:51:27.327Z,97469.81
2024-03-18T17:53:56.057Z,97472.39
2024-03-18T17:56:24.609Z,97473.36
2024-03-18T17:58:52.680Z,97475.46
2024-03-18T18:01:21.086Z,97477.65
2024-03-18T18:03:54.513Z,97477.84
2024-03-18T18:06:23.475Z,97478.27
2024-03-18T18:08:51.816Z,97477.45
2024-03-18T18:11:21.436Z,97481.53
2024-03-18T18:13:52.528Z,97482.89
2024-03-18T18:16:20.816Z,97481.70
2024-03-18T18:18:49.236Z,97480.88
2024-03-18T18:21:19.228Z,97478.02
2024-03-18T18:23:50.183Z,97478.74
2024-03-18T18:26:24.209Z,97481.65
2024-03-18T18:28:53.911Z,97480.77
2024-03-18T18:31:22.469Z,97480.46
2024-03-18T18:33:51.241Z,97481.50
2024-03-18T18:36:20.753Z,97485.27
2024-03-18T18:38:51.981Z,97482.57
2024-03-18T18:41:20.275Z,97483.38
2024-03-18T18:43:49.018Z,97481.90
2024-03-18T18:46:17.221Z,97484.77
2024-03-18T18:48:45.303Z,97487.31
2024-03-18T18:51:14.941Z,97486.84
2024-03-18T18:53:45.883Z,97485.77
2024-03-18T18:56:14.009Z,97484.05
2024-03-18T18:58:45.908Z,97483.80
2024-03-18T19:01:16.084Z,97482.61
2024-03-18T19:03:44.702Z,97484.33
2024-03-18T19:06:16.374Z,97484.32
2024-03-18T19:08:47.160Z,97485.52
2024-03-18T19:11:17.199Z,97484.02
2024-03-18T19:13:45.240Z,97486.90
2024-03-18T19:16:13.672Z,97483.33
2024-03-18T19:18:43.754Z,97486.67
2024-03-18T19:21:13.305Z,97487.88
2024-03-18T19:23:41.525Z,97489.72
2024-03-18T19:26:13.172Z,97489.82
2024-03-18T19:28:44.838Z,97491.59
2024-03-18T19:31:13.781Z,97497.89
2024-03-18T19:33:42.229Z,97500.08
2024-03-18T19:36:11.702Z,97498.52
2024-03-18T19:38:41.357Z,97500.91
2024-03-18T19:41:10.048Z,97504.17
2024-03-18T19:43:39.531Z,97503.70
2024-03-18T19:46:10.578Z,97504.81
2024-03-18T19:48:39.483Z,97504.23
2024-03-18T19:51:08.374Z,97508.27
2024-03-18T19:53:38.486Z,97506.70
2024-03-18T19:56:07.027Z,97514.48
2024-03-18T19:58:35.807Z,97513.61
2024-03-18T20:01:04.233Z,97511.83
2024-03-18T20:03:32.417Z,97512.91
2024-03-18T20:06:01.654Z,97512.69
2024-03-18T20:08:29.859Z,97512.84
2024-03-18T20:10:59.640Z,97510.44
2024-03-18T20:13:28.072Z,97511.08
2024-03-18T20:15:56.197Z,97510.00
2024-03-18T20:18:24.977Z,97508.92
2024-03-18T20:20:53.800Z,97506.02
2024-03-18T20:23:22.130Z,97505.77
2024-03-18T20:25:51.133Z,97502.56
2024-03-18T20:28:19.588Z,97503.21
2024-03-18T20:30:48.751Z,97503.74
2024-03-18T20:33:17.441Z,97506.29
2024-03-18T20:35:46.017Z,97501.52
2024-03-18T20:38:14.406Z,97502.04
2024-03-18T20:40:43.172Z,97499.80
2024-03-18T20:43:12.062Z,97497.40
2024-03-18T20:45:42.077Z,97498.17
2024-03-18T20:48:11.171Z,97492.89
2024-03-18T20:50:40.995Z,97493.64
2024-03-18T20:53:09.184Z,97491.24
2024-03-18T20:55:37.257Z,97492.50
2024-03-18T20:58:07.761Z,97493.46
2024-03-18T21:00:37.133Z,97494.27
2024-03-18T21:03:05.441Z,97490.83
2024-03-18T21:05:34.732Z,97489.03
2024-03-18T21:08:03.272Z,97490.05
2024-03-18T21:10:31.388Z,97491.59
2024-03-18T21:12:59.764Z,97492.38
2024-03-18T21:15:32.764Z,97494.55
2024-03-18T21:18:00.839Z,97497.80
2024-03-18T21:20:32.698Z,97493.63
2024-03-18T21:23:03.154Z,97492.55
2024-03-18T21:25:32.086Z,97490.57
2024-03-18T21:28:03.317Z,97489.95
2024-03-18T21:30:31.718Z,97493.90
2024-03-18T21:33:01.962Z,97491.45
2024-03-18T21:35:30.889Z,97494.31
2024-03-18T21:37:59.031Z,97486.46
2024-03-18T21:40:27.470Z,97489.48
2024-03-18T21:42:57.379Z,97487.04
2024-03-18T21:45:26.069Z,97488.95
2024-03-18T21:47:54.444Z,97492.41
2024-03-18T21:50:23.138Z,97489.16
2024-03-18T21:52:53.823Z,97491.58
2024-03-18T21:55:24.029Z,97493.05
2024-03-18T21:57:55.561Z,97496.51
2024-03-18T22:00:23.831Z,97497.98
2024-03-18T22:02:53.506Z,97495.64
2024-03-18T22:05:22.338Z,97498.99
2024-03-18T22:07:50.689Z,97499.46
2024-03-18T22:10:18.770Z,97495.98
2024-03-18T22:12:50.963Z,97495.25
2024-03-18T22:15:19.494Z,97495.09
2024-03-18T22:17:49.113Z,97492.44
2024-03-18T22:20:17.547Z,97496.50
2024-03-18T22:22:45.601Z,97497.60
2024-03-18T22:25:13.761Z,97498.04
2024-03-18T22:27:42.129Z,97499.91
2024-03-18T22:30:11.761Z,97503.94
2024-03-18T22:32:40.575Z,97500.89
2024-03-18T22:35:14.092Z,97503.35
2024-03-18T22:37:42.541Z,97503.79
2024-03-18T22:40:12.504Z,97506.33
2024-03-18T22:42:41.994Z,97502.88
2024-03-18T22:45:20.329Z,97506.21
2024-03-18T22:47:49.938Z,97503.10
2024-03-18T22:50:18.248Z,97505.61
2024-03-18T22:52:46.561Z,97501.05
2024-03-18T22:55:16.063Z,97504.17
2024-03-18T22:57:44.445Z,97501.83
2024-03-18T23:00:21.052Z,97501.27
2024-03-18T23:02:49.819Z,97506.49
2024-03-18T23:05:18.484Z,97507.80
2024-03-18T23:07:46.753Z,97505.17
2024-03-18T23:10:15.830Z,97507.63
2024-03-18T23:12:43.989Z,97501.52
2024-03-18T23:15:12.203Z,97503.30
2024-03-18T23:17:41.250Z,97502.48
2024-03-18T23:20:10.873Z,97506.61
2024-03-18T23:22:40.872Z,97506.79
2024-03-18T23:25:12.828Z,97505.19
2024-03-18T23:27:41.088Z,97505.17
2024-03-18T23:30:11.186Z,97505.33
2024-03-18T23:32:45.152Z,97507.30
2024-03-18T23:35:18.560Z,97507.10
2024-03-18T23:37:46.765Z,97509.81
2024-03-18T23:40:15.433Z,97509.27
2024-03-18T23:42:44.480Z,97506.67
2024-03-18T23:45:15.112Z,97505.41
2024-03-18T23:47:44.060Z,97506.61
2024-03-18T23:50:15.339Z,97506.32
2024-03-18T23:52:45.421Z,97508.95
2024-03-18T23:55:13.754Z,97510.20
2024-03-18T23:57:41.887Z,97511.36
